sensor_id;sensor_type;location;lat;lon;timestamp;pressure;altitude;pressure_sealevel;temperature;humidity
59315;BME280;46521;50.160;20.802;2024-01-06T00:03:31;98808.90;;;0.23;82.21
59315;BME280;46521;50.160;20.802;2024-01-06T00:13:33;98817.64;;;0.22;82.33
59315;BME280;46521;50.160;20.802;2024-01-06T00:23:34;98824.50;;;0.23;82.22
59315;BME280;46521;50.160;20.802;2024-01-06T00:33:36;98811.63;;;0.21;82.54
59315;BME280;46521;50.160;20.802;2024-01-06T00:43:37;98820.97;;;0.24;82.59
59315;BME280;46521;50.160;20.802;2024-01-06T00:53:39;98812.55;;;0.31;82.65
59315;BME280;46521;50.160;20.802;2024-01-06T01:03:40;98789.34;;;0.40;82.36
59315;BME280;46521;50.160;20.802;2024-01-06T01:13:42;98796.77;;;0.44;82.57
59315;BME280;46521;50.160;20.802;2024-01-06T01:23:43;98790.59;;;0.45;82.46
59315;BME280;46521;50.160;20.802;2024-01-06T01:33:45;98777.97;;;0.41;82.61
59315;BME280;46521;50.160;20.802;2024-01-06T01:43:46;98765.68;;;0.43;82.96
59315;BME280;46521;50.160;20.802;2024-01-06T01:53:49;98761.79;;;0.37;82.96
59315;BME280;46521;50.160;20.802;2024-01-06T02:03:51;98777.03;;;0.42;82.95
59315;BME280;46521;50.160;20.802;2024-01-06T02:13:52;98771.33;;;0.48;82.86
59315;BME280;46521;50.160;20.802;2024-01-06T02:23:54;98759.35;;;0.57;82.88
59315;BME280;46521;50.160;20.802;2024-01-06T02:33:55;98753.05;;;0.59;83.31
59315;BME280;46521;50.160;20.802;2024-01-06T02:43:57;98731.98;;;0.62;82.86
59315;BME280;46521;50.160;20.802;2024-01-06T02:53:58;98741.31;;;0.65;83.09
59315;BME280;46521;50.160;20.802;2024-01-06T03:04:00;98755.52;;;0.61;82.97
59315;BME280;46521;50.160;20.802;2024-01-06T03:14:01;98757.69;;;0.56;82.92
59315;BME280;46521;50.160;20.802;2024-01-06T03:24:04;98754.90;;;0.47;83.04
59315;BME280;46521;50.160;20.802;2024-01-06T03:34:06;98741.42;;;0.42;83.23
59315;BME280;46521;50.160;20.802;2024-01-06T03:44:09;98737.88;;;0.43;83.31
59315;BME280;46521;50.160;20.802;2024-01-06T03:54:11;98735.28;;;0.43;83.35
59315;BME280;46521;50.160;20.802;2024-01-06T04:04:12;98734.34;;;0.44;83.47
59315;BME280;46521;50.160;20.802;2024-01-06T04:14:14;98726.16;;;0.49;83.59
59315;BME280;46521;50.160;20.802;2024-01-06T04:24:16;98719.60;;;0.54;83.27
59315;BME280;46521;50.160;20.802;2024-01-06T04:34:17;98730.60;;;0.58;83.36
59315;BME280;46521;50.160;20.802;2024-01-06T04:44:20;98733.33;;;0.57;83.44
59315;BME280;46521;50.160;20.802;2024-01-06T04:54:23;98733.08;;;0.60;83.69
59315;BME280;46521;50.160;20.802;2024-01-06T05:04:25;98730.22;;;0.63;83.49
59315;BME280;46521;50.160;20.802;2024-01-06T05:14:26;98730.66;;;0.68;84.20
59315;BME280;46521;50.160;20.802;2024-01-06T05:24:27;98745.05;;;0.72;84.22
59315;BME280;46521;50.160;20.802;2024-01-06T05:34:29;98743.16;;;0.74;84.09
59315;BME280;46521;50.160;20.802;2024-01-06T05:44:30;98762.20;;;0.75;83.60
59315;BME280;46521;50.160;20.802;2024-01-06T05:54:32;98776.74;;;0.77;84.25
59315;BME280;46521;50.160;20.802;2024-01-06T06:04:33;98778.25;;;0.80;84.58
59315;BME280;46521;50.160;20.802;2024-01-06T06:14:35;98787.41;;;0.74;84.37
59315;BME280;46521;50.160;20.802;2024-01-06T06:24:36;98792.86;;;0.71;84.63
59315;BME280;46521;50.160;20.802;2024-01-06T06:34:38;98791.89;;;0.72;84.77
59315;BME280;46521;50.160;20.802;2024-01-06T06:44:39;98824.78;;;0.73;84.67
59315;BME280;46521;50.160;20.802;2024-01-06T06:54:41;98815.06;;;0.75;84.83
59315;BME280;46521;50.160;20.802;2024-01-06T07:04:42;98805.88;;;0.71;85.08
59315;BME280;46521;50.160;20.802;2024-01-06T07:14:44;98805.44;;;0.66;85.25
59315;BME280;46521;50.160;20.802;2024-01-06T07:24:46;98813.09;;;0.67;84.96
59315;BME280;46521;50.160;20.802;2024-01-06T07:34:47;98804.91;;;0.72;85.19
59315;BME280;46521;50.160;20.802;2024-01-06T07:44:49;98817.54;;;0.77;85.38
59315;BME280;46521;50.160;20.802;2024-01-06T07:54:50;98827.33;;;0.84;85.30
59315;BME280;46521;50.160;20.802;2024-01-06T08:04:52;98824.47;;;0.87;85.56
59315;BME280;46521;50.160;20.802;2024-01-06T08:14:54;98839.59;;;0.94;85.56
59315;BME280;46521;50.160;20.802;2024-01-06T08:24:56;98848.68;;;0.99;85.71
59315;BME280;46521;50.160;20.802;2024-01-06T08:34:57;98844.34;;;1.10;85.84
59315;BME280;46521;50.160;20.802;2024-01-06T08:44:59;98855.66;;;1.20;85.69
59315;BME280;46521;50.160;20.802;2024-01-06T08:55:00;98865.88;;;1.33;86.31
59315;BME280;46521;50.160;20.802;2024-01-06T09:05:02;98861.09;;;1.38;86.32
59315;BME280;46521;50.160;20.802;2024-01-06T09:15:04;98858.95;;;1.43;86.32
59315;BME280;46521;50.160;20.802;2024-01-06T09:25:05;98869.55;;;1.51;86.13
59315;BME280;46521;50.160;20.802;2024-01-06T09:35:07;98857.92;;;1.55;86.31
59315;BME280;46521;50.160;20.802;2024-01-06T09:45:09;98823.78;;;1.58;87.04
59315;BME280;46521;50.160;20.802;2024-01-06T09:55:11;98833.69;;;1.65;87.11
59315;BME280;46521;50.160;20.802;2024-01-06T10:05:13;98850.95;;;1.66;86.52
59315;BME280;46521;50.160;20.802;2024-01-06T10:15:15;98843.13;;;1.66;86.84
59315;BME280;46521;50.160;20.802;2024-01-06T10:25:17;98828.18;;;1.68;86.80
59315;BME280;46521;50.160;20.802;2024-01-06T10:35:18;98809.80;;;1.69;87.55
59315;BME280;46521;50.160;20.802;2024-01-06T10:45:20;98812.99;;;1.73;87.19
59315;BME280;46521;50.160;20.802;2024-01-06T10:55:23;98808.75;;;1.82;87.14
59315;BME280;46521;50.160;20.802;2024-01-06T11:05:27;98802.34;;;1.95;87.07
59315;BME280;46521;50.160;20.802;2024-01-06T11:15:43;98810.04;;;2.07;87.02
59315;BME280;46521;50.160;20.802;2024-01-06T11:25:45;98806.22;;;2.11;87.67
59315;BME280;46521;50.160;20.802;2024-01-06T11:35:46;98803.88;;;2.08;87.63
59315;BME280;46521;50.160;20.802;2024-01-06T11:45:51;98811.83;;;2.06;87.20
59315;BME280;46521;50.160;20.802;2024-01-06T11:55:53;98808.83;;;2.11;87.67
59315;BME280;46521;50.160;20.802;2024-01-06T12:06:01;98812.38;;;2.10;87.51
59315;BME280;46521;50.160;20.802;2024-01-06T12:16:03;98824.06;;;2.06;87.53
59315;BME280;46521;50.160;20.802;2024-01-06T12:26:06;98826.35;;;1.99;87.32
59315;BME280;46521;50.160;20.802;2024-01-06T12:36:08;98834.34;;;1.97;87.31
59315;BME280;46521;50.160;20.802;2024-01-06T12:46:09;98840.64;;;1.95;87.45
59315;BME280;46521;50.160;20.802;2024-01-06T12:56:11;98868.77;;;1.91;87.33
59315;BME280;46521;50.160;20.802;2024-01-06T13:06:15;98886.44;;;1.88;87.70
59315;BME280;46521;50.160;20.802;2024-01-06T13:16:17;98879.01;;;1.83;87.49
59315;BME280;46521;50.160;20.802;2024-01-06T13:26:18;98894.48;;;1.75;87.39
59315;BME280;46521;50.160;20.802;2024-01-06T13:36:20;98903.13;;;1.75;87.68
59315;BME280;46521;50.160;20.802;2024-01-06T13:46:21;98896.54;;;1.71;87.10
59315;BME280;46521;50.160;20.802;2024-01-06T13:56:23;98901.13;;;1.58;87.14
59315;BME280;46521;50.160;20.802;2024-01-06T14:06:25;98896.17;;;1.55;87.18
59315;BME280;46521;50.160;20.802;2024-01-06T14:16:31;98899.67;;;1.44;87.58
59315;BME280;46521;50.160;20.802;2024-01-06T14:26:33;98915.69;;;1.39;87.38
59315;BME280;46521;50.160;20.802;2024-01-06T14:36:34;98915.50;;;1.31;87.32
59315;BME280;46521;50.160;20.802;2024-01-06T14:46:36;98934.24;;;1.25;87.51
59315;BME280;46521;50.160;20.802;2024-01-06T14:56:38;98939.58;;;1.23;87.46
59315;BME280;46521;50.160;20.802;2024-01-06T15:06:40;98943.03;;;1.24;87.18
59315;BME280;46521;50.160;20.802;2024-01-06T15:16:42;98944.47;;;1.17;87.41
59315;BME280;46521;50.160;20.802;2024-01-06T15:26:43;98942.48;;;1.09;87.45
59315;BME280;46521;50.160;20.802;2024-01-06T15:36:45;98936.96;;;1.02;87.41
59315;BME280;46521;50.160;20.802;2024-01-06T15:46:48;98960.89;;;0.96;87.60
59315;BME280;46521;50.160;20.802;2024-01-06T15:56:50;98964.11;;;0.88;87.21
59315;BME280;46521;50.160;20.802;2024-01-06T16:06:52;98956.55;;;0.85;87.90
59315;BME280;46521;50.160;20.802;2024-01-06T16:16:54;98967.20;;;0.82;87.72
59315;BME280;46521;50.160;20.802;2024-01-06T16:26:55;98963.78;;;0.70;87.72
59315;BME280;46521;50.160;20.802;2024-01-06T16:36:57;98958.01;;;0.67;87.60
59315;BME280;46521;50.160;20.802;2024-01-06T16:46:59;98966.06;;;0.64;87.60
59315;BME280;46521;50.160;20.802;2024-01-06T16:57:00;98973.65;;;0.56;87.73
59315;BME280;46521;50.160;20.802;2024-01-06T17:07:04;98973.20;;;0.50;87.69
59315;BME280;46521;50.160;20.802;2024-01-06T17:17:07;98976.97;;;0.46;87.57
59315;BME280;46521;50.160;20.802;2024-01-06T17:27:08;98987.04;;;0.40;87.63
59315;BME280;46521;50.160;20.802;2024-01-06T17:37:10;98985.73;;;0.34;87.58
59315;BME280;46521;50.160;20.802;2024-01-06T17:47:11;98995.44;;;0.32;87.74
59315;BME280;46521;50.160;20.802;2024-01-06T17:57:15;98993.31;;;0.26;87.44
59315;BME280;46521;50.160;20.802;2024-01-06T18:07:18;98992.38;;;0.27;87.79
59315;BME280;46521;50.160;20.802;2024-01-06T18:17:20;99012.56;;;0.23;87.73
59315;BME280;46521;50.160;20.802;2024-01-06T18:27:21;99015.52;;;0.18;87.73
59315;BME280;46521;50.160;20.802;2024-01-06T18:37:23;99016.59;;;0.16;87.52
59315;BME280;46521;50.160;20.802;2024-01-06T18:47:24;99017.18;;;0.08;87.57
59315;BME280;46521;50.160;20.802;2024-01-06T18:57:26;99011.25;;;0.06;87.60
59315;BME280;46521;50.160;20.802;2024-01-06T19:07:28;99015.05;;;0.02;87.54
59315;BME280;46521;50.160;20.802;2024-01-06T19:17:29;99021.30;;;-0.01;87.51
59315;BME280;46521;50.160;20.802;2024-01-06T19:27:31;99028.27;;;-0.01;87.53
59315;BME280;46521;50.160;20.802;2024-01-06T19:37:34;99027.69;;;-0.05;87.51
59315;BME280;46521;50.160;20.802;2024-01-06T19:47:36;99027.80;;;-0.06;87.51
59315;BME280;46521;50.160;20.802;2024-01-06T19:57:37;99034.98;;;-0.10;87.68
59315;BME280;46521;50.160;20.802;2024-01-06T20:07:39;99025.16;;;-0.17;87.41
59315;BME280;46521;50.160;20.802;2024-01-06T20:17:40;99033.87;;;-0.30;87.48
59315;BME280;46521;50.160;20.802;2024-01-06T20:27:43;99036.95;;;-0.36;87.24
59315;BME280;46521;50.160;20.802;2024-01-06T20:37:45;99051.32;;;-0.43;87.41
59315;BME280;46521;50.160;20.802;2024-01-06T20:47:47;99041.48;;;-0.51;87.28
59315;BME280;46521;50.160;20.802;2024-01-06T20:57:50;99045.35;;;-0.57;87.12
59315;BME280;46521;50.160;20.802;2024-01-06T21:07:51;99045.09;;;-0.65;87.11
59315;BME280;46521;50.160;20.802;2024-01-06T21:17:53;99049.91;;;-0.71;86.82
59315;BME280;46521;50.160;20.802;2024-01-06T21:27:54;99041.96;;;-0.81;87.19
59315;BME280;46521;50.160;20.802;2024-01-06T21:37:59;99052.16;;;-0.91;86.72
59315;BME280;46521;50.160;20.802;2024-01-06T21:48:01;99060.73;;;-1.02;86.90
59315;BME280;46521;50.160;20.802;2024-01-06T21:58:02;99052.75;;;-1.12;86.99
59315;BME280;46521;50.160;20.802;2024-01-06T22:08:04;99051.75;;;-1.22;86.54
59315;BME280;46521;50.160;20.802;2024-01-06T22:18:06;99060.89;;;-1.29;86.68
59315;BME280;46521;50.160;20.802;2024-01-06T22:28:07;99058.83;;;-1.37;87.02
59315;BME280;46521;50.160;20.802;2024-01-06T22:38:10;99058.54;;;-1.45;87.05
59315;BME280;46521;50.160;20.802;2024-01-06T22:48:12;99067.88;;;-1.55;86.83
59315;BME280;46521;50.160;20.802;2024-01-06T22:58:13;99070.17;;;-1.64;86.62
59315;BME280;46521;50.160;20.802;2024-01-06T23:08:15;99068.84;;;-1.69;86.82
59315;BME280;46521;50.160;20.802;2024-01-06T23:18:16;99072.26;;;-1.69;86.67
59315;BME280;46521;50.160;20.802;2024-01-06T23:28:18;99076.83;;;-1.72;86.30
59315;BME280;46521;50.160;20.802;2024-01-06T23:38:20;99075.98;;;-1.73;86.44
59315;BME280;46521;50.160;20.802;2024-01-06T23:48:22;99089.25;;;-1.77;86.65
59315;BME280;46521;50.160;20.802;2024-01-06T23:58:23;99089.77;;;-1.85;86.11
